First Citizens Bcshs -Cl A (FCNCA) Latest Bloomsberg Price


Mffais Ranking #552 Overall / #38 Industry
Industry: Banks

Number of Companies: 88 (Ranking #1806 Overall/#94 Industry)
Inflow: $ 21,492 (K) (Ranking #1717 Overall/#83 Industry)
Outflow: $ -14,594 (K)
Mffais Flow: $ 6,897 (K) (Ranking #552 Overall/#38 Industry)


Receive a FREE weekly executive review of stocks moving into the top 10, taking the top industy spot or moving up within their industry. Sent directly to your Inbox every Saturday. Sign up today and get last week's review immediately sent to you.

We value and respect your privacy. Please read our Terms and Conditions which states our firm commitment to your privacy. Your email address will not be shared with a third party, nor will it be sold or used for purposes other than subscription for the weekly review.

Owner CPOR Shares Action Qty Chg Invested (K) Total Current Value (K)
Panagora Asset Management Inc 2016-09-30 41,954 Added More 12,995 $ 3,383 $ 10,924
Cornerstone Capital Management Holdings Llc 2016-09-30 14,097 Added More 12,900 $ 3,359 $ 3,670
Martingale Asset Management L P 2016-09-30 20,604 Added More 11,600 $ 3,020 $ 5,365
Northern Trust Corp 2016-09-30 94,415 Added More 6,844 $ 1,782 $ 24,585
Boston Advisors Llc 2016-09-30 6,826 New Holding 6,826 $ 1,777 $ 1,777
Bessemer Group Inc 2016-09-30 6,600 New Holding 6,600 $ 1,718 $ 1,718
Dimensional Fund Advisors Lp 2016-09-30 210,419 Added More 5,453 $ 1,419 $ 54,793
Peak6 Investments L P 2016-09-30 2,869 New Holding 2,869 $ 747 $ 747
Tfs Capital Llc 2016-09-30 1,715 New Holding 1,715 $ 446 $ 446
Alps Advisors Inc 2016-09-30 1,482 New Holding 1,482 $ 385 $ 385
Gsa Capital Partners Llp 2016-09-30 2,352 Added More 1,319 $ 343 $ 612
Parametric Portfolio Associates Llc 2016-09-30 7,019 Added More 1,242 $ 323 $ 1,827
Kcg Holdings Inc 2016-09-30 1,099 New Holding 1,099 $ 286 $ 286
Zebra Capital Management Llc 2016-09-30 6,683 Added More 1,080 $ 281 $ 1,740
Stratos Wealth Partners Ltd 2016-09-30 1,000 New Holding 1,000 $ 260 $ 260
Guggenheim Capital Llc 2016-09-30 5,611 Added More 880 $ 229 $ 1,461
Two Sigma Securities Llc 2016-09-30 725 New Holding 725 $ 188 $ 188
Hsbc Holdings Plc 2016-09-30 720 New Holding 720 $ 187 $ 187
Oppenheimer Co Inc 2016-09-30 700 New Holding 700 $ 182 $ 182
Bank Of The Ozarks 2016-09-30 698 New Holding 698 $ 181 $ 181
Loews Corp 2016-09-30 690 New Holding 690 $ 179 $ 179
Nationwide Fund Advisors 2016-09-30 7,358 Added More 572 $ 148 $ 1,916
Oshaughnessy Asset Management Llc 2016-09-30 684 Added More 386 $ 100 $ 178
First Citizens Bank Trust Co 2016-09-30 5,376 Added More 384 $ 99 $ 1,399
Tower Research Capital Llc Trc 2016-09-30 356 New Holding 356 $ 92 $ 92
Aperio Group Llc 2016-09-30 1,590 Added More 284 $ 73 $ 414
Pnc Financial Services Group Inc 2016-09-30 2,039 Added More 256 $ 66 $ 530
Teachers Retirement System Of The State Of Kentucky 2016-09-30 8,986 Added More 207 $ 53 $ 2,339
Legal General Group Plc 2016-09-30 1,679 Added More 166 $ 43 $ 437
Rhumbline Advisers 2016-09-30 11,052 Added More 165 $ 42 $ 2,877
California State Teachers Retirement System 2016-09-30 16,112 Added More 100 $ 26 $ 4,195
Pacer Advisors Inc 2016-09-30 868 Added More 72 $ 18 $ 226
Blackrock Investment Management Llc 2016-09-30 31,252 Added More 54 $ 14 $ 8,138
Blackrock Inc 2016-09-30 1,919 Added More 37 $ 9 $ 499
Penserra Capital Management Llc 2016-09-30 61 Added More 24 $ 6 $ 15
Ladenburg Thalmann Financial Services Inc 2016-09-30 27 Added More 20 $ 5 $ 7
Northwestern Mutual Wealth Management Co 2016-09-30 28 Added More 11 $ 2 $ 7
American International Group Inc 2016-09-30 4,374 Added More 6 $ 1 $ 1,138
Bronfman E L Rothschild L P 2016-09-30 5 No Change 0 $ 0 $ 1
Sheets Smith Wealth Management 2016-09-30 2,933 No Change 0 $ 0 $ 763
Creative Planning 2016-09-30 626 No Change 0 $ 0 $ 163
Bartlett Co Llc 2016-09-30 400 No Change 0 $ 0 $ 104
Willingdon Wealth Management 2016-09-30 970 No Change 0 $ 0 $ 252
New York State Common Retirement Fund 2016-09-30 8,037 No Change 0 $ 0 $ 2,092
Salem Investment Counselors Inc 2016-09-30 5,699 No Change 0 $ 0 $ 1,484
Ifp Advisors Inc 2016-09-30 5 No Change 0 $ 0 $ 1
Physicians Financial Services Inc 2016-09-30 400 No Change 0 $ 0 $ 104
Basswood Capital Management L L C 2016-09-30 15,028 No Change 0 $ 0 $ 3,913
Cannell Peter B Co Inc 2016-09-30 975 No Change 0 $ 0 $ 253
Synovus Financial Corp 2016-09-30 705 No Change 0 $ 0 $ 183
Cna Financial Corp 2016-09-30 2,545 No Change 0 $ 0 $ 662
Us Bancorp De 2016-09-30 4 No Change 0 $ 0 $ 1
Enterprise Financial Services Corp 2016-09-30 16 No Change 0 $ 0 $ 4
Eagle Capital Management Llc 2016-09-30 1,560 No Change 0 $ 0 $ 406
Bb T Corp 2016-09-30 11,666 No Change 0 $ 0 $ 3,037
Deere Co 2016-09-30 999 No Change 0 $ 0 $ 260
Palladium Partners Llc 2016-09-30 1,550 No Change 0 $ 0 $ 403
Parkside Financial Bank Trust 2016-09-30 108 No Change 0 $ 0 $ 28
Smith Salley Associates 2016-09-30 1,000 No Change 0 $ 0 $ 260
Arbiter Partners Capital Management Llc 2016-09-30 56,870 No Change 0 $ 0 $ 14,808
Denali Advisors Llc 2016-09-30 12 No Change 0 $ 0 $ 3
Advisor Group Inc 2016-09-30 0 Sold All -19 $ -4 $ 0
Sei Investments Co 2016-09-30 10 Sold Some -29 $ -7 $ 2
Genesee Valley Trust Co 2016-09-30 1,187 Sold Some -50 $ -13 $ 309
Piermont Capital Management Inc 2016-09-30 11,475 Sold Some -80 $ -20 $ 2,988
Emerald Acquisition Ltd 2016-09-30 109 Sold Some -109 $ -28 $ 28
Triangle Securities Wealth Management 2016-09-30 890 Sold Some -177 $ -46 $ 231
Proshare Advisors Llc 2016-09-30 750 Sold Some -213 $ -55 $ 195
Horizon Kinetics Llc 2016-09-30 1,470 Sold Some -240 $ -62 $ 382
Teacher Retirement System Of Texas 2016-09-30 758 Sold Some -247 $ -64 $ 197
Brandywine Global Investment Management Llc 2016-09-30 22,614 Sold Some -300 $ -78 $ 5,888
City Holding Co 2016-09-30 0 Sold All -361 $ -94 $ 0
Royce Associates Lp 2016-09-30 207,543 Sold Some -385 $ -100 $ 54,044
Strs Ohio 2016-09-30 4,400 Sold Some -400 $ -104 $ 1,145
Swiss National Bank 2016-09-30 11,400 Sold Some -400 $ -104 $ 2,968
River Road Asset Management Llc 2016-09-30 18,929 Sold Some -420 $ -109 $ 4,929
Sg Americas Securities Llc 2016-09-30 707 Sold Some -494 $ -128 $ 184
Teachers Advisors Inc 2016-09-30 13,377 Sold Some -573 $ -149 $ 3,483
Menta Capital Llc 2016-09-30 1,151 Sold Some -597 $ -155 $ 299
Babson Capital Management Llc 2016-09-30 770 Sold Some -600 $ -156 $ 200
Qs Investors Llc 2016-09-30 0 Sold All -800 $ -208 $ 0
Highbridge Capital Management Llc 2016-09-30 0 Sold All -814 $ -211 $ 0
Reinhart Partners Inc 2016-09-30 10,358 Sold Some -1,635 $ -425 $ 2,697
Mackenzie Financial Corp 2016-09-30 1,488 Sold Some -1,668 $ -434 $ 387
Axa 2016-09-30 1,800 Sold Some -3,500 $ -911 $ 468
Systematic Financial Management Lp 2016-09-30 83,095 Sold Some -7,496 $ -1,951 $ 21,637
Maltese Capital Management Llc 2016-09-30 12,000 Sold Some -12,000 $ -3,124 $ 3,124
Sterling Capital Management Llc 2016-09-30 0 Sold All -22,441 $ -5,843 $ 0